sensor_id;sensor_type;location;lat;lon;timestamp;temperature;humidity
20498;DHT22;10407;53.238;10.448;2023-08-30T00:01:34;15.40;99.90
20498;DHT22;10407;53.238;10.448;2023-08-30T00:04:02;15.20;99.90
20498;DHT22;10407;53.238;10.448;2023-08-30T00:06:30;15.30;99.90
20498;DHT22;10407;53.238;10.448;2023-08-30T00:08:58;15.30;99.90
20498;DHT22;10407;53.238;10.448;2023-08-30T00:11:26;15.30;99.90
20498;DHT22;10407;53.238;10.448;2023-08-30T00:14:06;15.10;99.90
20498;DHT22;10407;53.238;10.448;2023-08-30T00:16:34;15.00;99.90
20498;DHT22;10407;53.238;10.448;2023-08-30T00:19:01;15.00;99.90
20498;DHT22;10407;53.238;10.448;2023-08-30T00:21:29;14.80;99.90
20498;DHT22;10407;53.238;10.448;2023-08-30T00:23:57;15.00;99.90
20498;DHT22;10407;53.238;10.448;2023-08-30T00:26:25;15.00;99.90
20498;DHT22;10407;53.238;10.448;2023-08-30T00:28:52;14.90;99.90
20498;DHT22;10407;53.238;10.448;2023-08-30T00:31:20;15.00;99.90
20498;DHT22;10407;53.238;10.448;2023-08-30T00:33:48;14.60;99.90
20498;DHT22;10407;53.238;10.448;2023-08-30T00:36:16;14.70;99.90
20498;DHT22;10407;53.238;10.448;2023-08-30T00:38:46;14.70;99.90
20498;DHT22;10407;53.238;10.448;2023-08-30T00:41:13;14.50;99.90
20498;DHT22;10407;53.238;10.448;2023-08-30T00:43:41;14.60;99.90
20498;DHT22;10407;53.238;10.448;2023-08-30T00:46:08;14.70;99.90
20498;DHT22;10407;53.238;10.448;2023-08-30T00:48:36;14.70;99.90
20498;DHT22;10407;53.238;10.448;2023-08-30T00:51:04;14.70;99.90
20498;DHT22;10407;53.238;10.448;2023-08-30T00:53:32;14.50;99.90
20498;DHT22;10407;53.238;10.448;2023-08-30T00:56:00;14.60;99.90
20498;DHT22;10407;53.238;10.448;2023-08-30T00:58:28;14.60;99.90
20498;DHT22;10407;53.238;10.448;2023-08-30T01:00:55;14.40;99.90
20498;DHT22;10407;53.238;10.448;2023-08-30T01:03:23;14.20;99.90
20498;DHT22;10407;53.238;10.448;2023-08-30T01:05:51;14.10;99.90
20498;DHT22;10407;53.238;10.448;2023-08-30T01:08:19;14.20;99.90
20498;DHT22;10407;53.238;10.448;2023-08-30T01:11:16;14.30;99.90
20498;DHT22;10407;53.238;10.448;2023-08-30T01:13:45;14.40;99.90
20498;DHT22;10407;53.238;10.448;2023-08-30T01:16:14;14.40;99.90
20498;DHT22;10407;53.238;10.448;2023-08-30T01:18:43;14.20;99.90
20498;DHT22;10407;53.238;10.448;2023-08-30T01:21:14;14.10;99.90
20498;DHT22;10407;53.238;10.448;2023-08-30T01:23:56;14.10;99.90
20498;DHT22;10407;53.238;10.448;2023-08-30T01:26:59;14.20;99.90
20498;DHT22;10407;53.238;10.448;2023-08-30T01:29:16;14.10;99.90
20498;DHT22;10407;53.238;10.448;2023-08-30T01:31:46;14.00;99.90
20498;DHT22;10407;53.238;10.448;2023-08-30T01:37:20;14.00;99.90
20498;DHT22;10407;53.238;10.448;2023-08-30T01:39:48;14.00;99.90
20498;DHT22;10407;53.238;10.448;2023-08-30T01:42:16;13.80;99.90
20498;DHT22;10407;53.238;10.448;2023-08-30T01:44:46;13.90;99.90
20498;DHT22;10407;53.238;10.448;2023-08-30T01:47:13;13.90;99.90
20498;DHT22;10407;53.238;10.448;2023-08-30T01:49:43;14.00;99.90
20498;DHT22;10407;53.238;10.448;2023-08-30T01:52:11;14.00;99.90
20498;DHT22;10407;53.238;10.448;2023-08-30T01:54:41;13.80;99.90
20498;DHT22;10407;53.238;10.448;2023-08-30T01:57:09;13.80;99.90
20498;DHT22;10407;53.238;10.448;2023-08-30T01:59:37;13.80;99.90
20498;DHT22;10407;53.238;10.448;2023-08-30T02:02:04;13.80;99.90
20498;DHT22;10407;53.238;10.448;2023-08-30T02:04:32;13.70;99.90
20498;DHT22;10407;53.238;10.448;2023-08-30T02:07:28;13.70;99.90
20498;DHT22;10407;53.238;10.448;2023-08-30T02:09:57;13.70;99.90
20498;DHT22;10407;53.238;10.448;2023-08-30T02:12:26;13.80;99.90
20498;DHT22;10407;53.238;10.448;2023-08-30T02:14:55;13.90;99.90
20498;DHT22;10407;53.238;10.448;2023-08-30T02:17:24;13.90;99.90
20498;DHT22;10407;53.238;10.448;2023-08-30T02:19:52;13.80;99.90
20498;DHT22;10407;53.238;10.448;2023-08-30T02:22:20;13.60;99.90
20498;DHT22;10407;53.238;10.448;2023-08-30T02:24:47;13.60;99.90
20498;DHT22;10407;53.238;10.448;2023-08-30T02:27:15;13.50;99.90
20498;DHT22;10407;53.238;10.448;2023-08-30T02:29:42;13.50;99.90
20498;DHT22;10407;53.238;10.448;2023-08-30T02:32:10;13.50;99.90
20498;DHT22;10407;53.238;10.448;2023-08-30T02:34:37;13.40;99.90
20498;DHT22;10407;53.238;10.448;2023-08-30T02:37:05;13.40;99.90
20498;DHT22;10407;53.238;10.448;2023-08-30T02:39:32;13.50;99.90
20498;DHT22;10407;53.238;10.448;2023-08-30T02:42:00;13.40;99.90
20498;DHT22;10407;53.238;10.448;2023-08-30T02:44:27;13.40;99.90
20498;DHT22;10407;53.238;10.448;2023-08-30T02:46:55;13.10;99.90
20498;DHT22;10407;53.238;10.448;2023-08-30T02:52:45;13.30;99.90
20498;DHT22;10407;53.238;10.448;2023-08-30T02:55:12;13.40;99.90
20498;DHT22;10407;53.238;10.448;2023-08-30T02:57:39;13.40;99.90
20498;DHT22;10407;53.238;10.448;2023-08-30T03:00:08;13.40;99.90
20498;DHT22;10407;53.238;10.448;2023-08-30T03:02:35;13.40;99.90
20498;DHT22;10407;53.238;10.448;2023-08-30T03:05:03;13.30;99.90
20498;DHT22;10407;53.238;10.448;2023-08-30T03:07:31;13.30;99.90
20498;DHT22;10407;53.238;10.448;2023-08-30T03:09:58;13.40;99.90
20498;DHT22;10407;53.238;10.448;2023-08-30T03:12:26;13.20;99.90
20498;DHT22;10407;53.238;10.448;2023-08-30T03:14:54;13.20;99.90
20498;DHT22;10407;53.238;10.448;2023-08-30T03:17:21;13.20;99.90
20498;DHT22;10407;53.238;10.448;2023-08-30T03:19:52;13.20;99.90
20498;DHT22;10407;53.238;10.448;2023-08-30T03:22:20;13.30;99.90
20498;DHT22;10407;53.238;10.448;2023-08-30T03:24:47;13.30;99.90
20498;DHT22;10407;53.238;10.448;2023-08-30T03:27:16;13.30;99.90
20498;DHT22;10407;53.238;10.448;2023-08-30T03:29:45;13.20;99.90
20498;DHT22;10407;53.238;10.448;2023-08-30T03:32:15;13.20;99.90
20498;DHT22;10407;53.238;10.448;2023-08-30T03:34:46;13.20;99.90
20498;DHT22;10407;53.238;10.448;2023-08-30T03:37:15;13.00;99.90
20498;DHT22;10407;53.238;10.448;2023-08-30T03:39:42;13.10;99.90
20498;DHT22;10407;53.238;10.448;2023-08-30T03:42:10;13.00;99.90
20498;DHT22;10407;53.238;10.448;2023-08-30T03:44:38;12.90;99.90
20498;DHT22;10407;53.238;10.448;2023-08-30T03:47:06;13.00;99.90
20498;DHT22;10407;53.238;10.448;2023-08-30T03:49:34;13.10;99.90
20498;DHT22;10407;53.238;10.448;2023-08-30T03:52:02;13.20;99.90
20498;DHT22;10407;53.238;10.448;2023-08-30T03:54:29;13.20;99.90
20498;DHT22;10407;53.238;10.448;2023-08-30T03:56:57;12.80;99.90
20498;DHT22;10407;53.238;10.448;2023-08-30T03:59:24;12.80;99.90
20498;DHT22;10407;53.238;10.448;2023-08-30T04:01:54;12.90;99.90
20498;DHT22;10407;53.238;10.448;2023-08-30T04:04:22;12.80;99.90
20498;DHT22;10407;53.238;10.448;2023-08-30T04:06:49;12.90;99.90
20498;DHT22;10407;53.238;10.448;2023-08-30T04:09:17;12.80;99.90
20498;DHT22;10407;53.238;10.448;2023-08-30T04:11:44;12.80;99.90
20498;DHT22;10407;53.238;10.448;2023-08-30T04:14:12;12.90;99.90
20498;DHT22;10407;53.238;10.448;2023-08-30T04:16:39;12.80;99.90
20498;DHT22;10407;53.238;10.448;2023-08-30T04:19:07;12.90;99.90
20498;DHT22;10407;53.238;10.448;2023-08-30T04:21:34;12.80;99.90
20498;DHT22;10407;53.238;10.448;2023-08-30T04:24:02;12.50;99.90
20498;DHT22;10407;53.238;10.448;2023-08-30T04:26:30;12.30;99.90
20498;DHT22;10407;53.238;10.448;2023-08-30T04:28:57;12.50;99.90
20498;DHT22;10407;53.238;10.448;2023-08-30T04:31:25;12.40;99.90
20498;DHT22;10407;53.238;10.448;2023-08-30T04:33:52;12.60;99.90
20498;DHT22;10407;53.238;10.448;2023-08-30T04:36:21;12.60;99.90
20498;DHT22;10407;53.238;10.448;2023-08-30T04:38:49;12.70;99.90
20498;DHT22;10407;53.238;10.448;2023-08-30T04:41:17;12.80;99.90
20498;DHT22;10407;53.238;10.448;2023-08-30T04:43:44;12.90;99.90
20498;DHT22;10407;53.238;10.448;2023-08-30T04:46:11;12.90;99.90
20498;DHT22;10407;53.238;10.448;2023-08-30T04:48:39;12.60;99.90
20498;DHT22;10407;53.238;10.448;2023-08-30T04:51:06;12.50;99.90
20498;DHT22;10407;53.238;10.448;2023-08-30T04:53:34;12.40;99.90
20498;DHT22;10407;53.238;10.448;2023-08-30T04:56:10;12.80;99.90
20498;DHT22;10407;53.238;10.448;2023-08-30T04:58:32;12.80;99.90
20498;DHT22;10407;53.238;10.448;2023-08-30T05:01:00;12.80;99.90
20498;DHT22;10407;53.238;10.448;2023-08-30T05:03:29;12.80;99.90
20498;DHT22;10407;53.238;10.448;2023-08-30T05:05:56;13.00;99.90
20498;DHT22;10407;53.238;10.448;2023-08-30T05:08:24;13.20;99.90
20498;DHT22;10407;53.238;10.448;2023-08-30T05:10:55;13.40;99.90
20498;DHT22;10407;53.238;10.448;2023-08-30T05:16:45;15.30;99.90
20498;DHT22;10407;53.238;10.448;2023-08-30T05:19:13;16.30;94.60
20498;DHT22;10407;53.238;10.448;2023-08-30T05:21:42;17.00;93.20
20498;DHT22;10407;53.238;10.448;2023-08-30T05:24:10;17.90;91.00
20498;DHT22;10407;53.238;10.448;2023-08-30T05:26:38;18.90;88.20
20498;DHT22;10407;53.238;10.448;2023-08-30T05:29:05;19.60;83.30
20498;DHT22;10407;53.238;10.448;2023-08-30T05:31:33;20.10;80.80
20498;DHT22;10407;53.238;10.448;2023-08-30T05:34:00;20.60;78.80
20498;DHT22;10407;53.238;10.448;2023-08-30T05:36:28;20.30;78.80
20498;DHT22;10407;53.238;10.448;2023-08-30T05:38:55;20.20;78.30
20498;DHT22;10407;53.238;10.448;2023-08-30T05:41:23;19.30;82.60
20498;DHT22;10407;53.238;10.448;2023-08-30T05:43:51;19.80;81.40
20498;DHT22;10407;53.238;10.448;2023-08-30T05:46:19;19.70;79.60
20498;DHT22;10407;53.238;10.448;2023-08-30T05:48:46;21.20;78.50
20498;DHT22;10407;53.238;10.448;2023-08-30T05:51:14;22.00;74.90
20498;DHT22;10407;53.238;10.448;2023-08-30T05:53:41;22.30;72.30
20498;DHT22;10407;53.238;10.448;2023-08-30T05:56:09;22.60;70.40
20498;DHT22;10407;53.238;10.448;2023-08-30T05:58:36;22.40;70.60
20498;DHT22;10407;53.238;10.448;2023-08-30T06:01:04;21.40;73.00
20498;DHT22;10407;53.238;10.448;2023-08-30T06:03:34;20.70;76.20
20498;DHT22;10407;53.238;10.448;2023-08-30T06:06:01;21.10;77.30
20498;DHT22;10407;53.238;10.448;2023-08-30T06:08:29;21.50;76.40
20498;DHT22;10407;53.238;10.448;2023-08-30T06:10:57;21.00;78.50
20498;DHT22;10407;53.238;10.448;2023-08-30T06:13:24;20.80;80.00
20498;DHT22;10407;53.238;10.448;2023-08-30T06:15:52;20.50;81.40
20498;DHT22;10407;53.238;10.448;2023-08-30T06:18:20;20.70;81.00
20498;DHT22;10407;53.238;10.448;2023-08-30T06:20:47;21.20;80.30
20498;DHT22;10407;53.238;10.448;2023-08-30T06:23:17;21.60;79.90
20498;DHT22;10407;53.238;10.448;2023-08-30T06:25:44;21.40;80.00
20498;DHT22;10407;53.238;10.448;2023-08-30T06:28:12;21.30;81.10
20498;DHT22;10407;53.238;10.448;2023-08-30T06:30:39;20.80;82.20
20498;DHT22;10407;53.238;10.448;2023-08-30T06:33:07;20.30;84.40
20498;DHT22;10407;53.238;10.448;2023-08-30T06:35:36;20.30;85.10
20498;DHT22;10407;53.238;10.448;2023-08-30T06:38:06;20.20;85.50
20498;DHT22;10407;53.238;10.448;2023-08-30T06:40:34;20.30;85.80
20498;DHT22;10407;53.238;10.448;2023-08-30T06:43:01;19.90;86.70
20498;DHT22;10407;53.238;10.448;2023-08-30T06:45:29;19.80;87.40
20498;DHT22;10407;53.238;10.448;2023-08-30T06:47:57;19.60;89.70
20498;DHT22;10407;53.238;10.448;2023-08-30T06:50:24;19.40;90.00
20498;DHT22;10407;53.238;10.448;2023-08-30T06:52:52;19.40;90.00
20498;DHT22;10407;53.238;10.448;2023-08-30T06:55:20;19.50;89.40
20498;DHT22;10407;53.238;10.448;2023-08-30T06:57:48;19.60;90.00
20498;DHT22;10407;53.238;10.448;2023-08-30T07:00:17;20.10;88.20
20498;DHT22;10407;53.238;10.448;2023-08-30T07:02:45;20.10;88.10
20498;DHT22;10407;53.238;10.448;2023-08-30T07:05:13;19.90;88.50
20498;DHT22;10407;53.238;10.448;2023-08-30T07:07:41;20.50;88.30
20498;DHT22;10407;53.238;10.448;2023-08-30T07:10:09;20.90;86.90
20498;DHT22;10407;53.238;10.448;2023-08-30T07:12:36;20.90;86.50
20498;DHT22;10407;53.238;10.448;2023-08-30T07:15:05;20.70;86.20
20498;DHT22;10407;53.238;10.448;2023-08-30T07:17:32;21.00;87.20
20498;DHT22;10407;53.238;10.448;2023-08-30T07:20:00;21.10;86.50
20498;DHT22;10407;53.238;10.448;2023-08-30T07:22:27;21.20;86.40
20498;DHT22;10407;53.238;10.448;2023-08-30T07:24:55;21.40;86.40
20498;DHT22;10407;53.238;10.448;2023-08-30T07:27:22;21.70;84.90
20498;DHT22;10407;53.238;10.448;2023-08-30T07:29:50;21.40;84.30
20498;DHT22;10407;53.238;10.448;2023-08-30T07:32:17;21.20;85.10
20498;DHT22;10407;53.238;10.448;2023-08-30T07:34:45;21.30;84.00
20498;DHT22;10407;53.238;10.448;2023-08-30T07:37:19;21.20;84.60
20498;DHT22;10407;53.238;10.448;2023-08-30T07:39:47;21.80;83.50
20498;DHT22;10407;53.238;10.448;2023-08-30T07:42:15;21.80;83.40
20498;DHT22;10407;53.238;10.448;2023-08-30T07:44:42;21.30;83.50
20498;DHT22;10407;53.238;10.448;2023-08-30T07:47:10;21.50;83.90
20498;DHT22;10407;53.238;10.448;2023-08-30T07:49:37;21.70;83.30
20498;DHT22;10407;53.238;10.448;2023-08-30T07:52:05;21.80;83.50
20498;DHT22;10407;53.238;10.448;2023-08-30T07:54:34;22.00;83.30
20498;DHT22;10407;53.238;10.448;2023-08-30T07:57:02;21.80;83.20
20498;DHT22;10407;53.238;10.448;2023-08-30T07:59:32;22.10;82.70
20498;DHT22;10407;53.238;10.448;2023-08-30T08:01:59;22.20;83.40
20498;DHT22;10407;53.238;10.448;2023-08-30T08:04:27;22.60;83.70
20498;DHT22;10407;53.238;10.448;2023-08-30T08:06:54;22.60;82.10
20498;DHT22;10407;53.238;10.448;2023-08-30T08:09:22;22.70;80.80
20498;DHT22;10407;53.238;10.448;2023-08-30T08:11:49;22.80;80.40
20498;DHT22;10407;53.238;10.448;2023-08-30T08:14:17;22.70;79.80
20498;DHT22;10407;53.238;10.448;2023-08-30T08:16:44;23.00;79.20
20498;DHT22;10407;53.238;10.448;2023-08-30T08:19:12;22.70;78.20
20498;DHT22;10407;53.238;10.448;2023-08-30T08:21:40;22.70;78.30
20498;DHT22;10407;53.238;10.448;2023-08-30T08:24:07;22.70;77.30
20498;DHT22;10407;53.238;10.448;2023-08-30T08:26:35;22.90;78.50
20498;DHT22;10407;53.238;10.448;2023-08-30T08:29:02;23.20;78.70
20498;DHT22;10407;53.238;10.448;2023-08-30T08:31:30;22.90;76.70
20498;DHT22;10407;53.238;10.448;2023-08-30T08:34:12;22.70;76.80
20498;DHT22;10407;53.238;10.448;2023-08-30T08:36:42;23.10;77.40
20498;DHT22;10407;53.238;10.448;2023-08-30T08:39:09;23.50;77.30
20498;DHT22;10407;53.238;10.448;2023-08-30T08:41:44;23.30;76.30
20498;DHT22;10407;53.238;10.448;2023-08-30T08:44:12;23.20;77.00
20498;DHT22;10407;53.238;10.448;2023-08-30T08:46:40;23.40;75.10
20498;DHT22;10407;53.238;10.448;2023-08-30T08:52:30;23.30;75.80
20498;DHT22;10407;53.238;10.448;2023-08-30T08:54:58;22.80;77.10
20498;DHT22;10407;53.238;10.448;2023-08-30T08:57:28;22.90;77.20
20498;DHT22;10407;53.238;10.448;2023-08-30T09:03:19;22.30;77.20
20498;DHT22;10407;53.238;10.448;2023-08-30T09:05:49;22.40;77.10
20498;DHT22;10407;53.238;10.448;2023-08-30T09:08:18;22.40;77.30
20498;DHT22;10407;53.238;10.448;2023-08-30T09:10:45;22.20;78.30
20498;DHT22;10407;53.238;10.448;2023-08-30T09:13:14;22.40;77.70
20498;DHT22;10407;53.238;10.448;2023-08-30T09:15:42;22.20;79.00
20498;DHT22;10407;53.238;10.448;2023-08-30T09:18:19;22.40;78.90
20498;DHT22;10407;53.238;10.448;2023-08-30T09:24:09;22.30;75.80
20498;DHT22;10407;53.238;10.448;2023-08-30T09:33:22;22.50;76.40
20498;DHT22;10407;53.238;10.448;2023-08-30T09:35:50;22.60;77.40
20498;DHT22;10407;53.238;10.448;2023-08-30T09:38:19;22.10;75.60
20498;DHT22;10407;53.238;10.448;2023-08-30T09:40:47;22.10;76.10
20498;DHT22;10407;53.238;10.448;2023-08-30T09:43:19;22.30;77.40
20498;DHT22;10407;53.238;10.448;2023-08-30T09:45:48;22.20;77.00
20498;DHT22;10407;53.238;10.448;2023-08-30T09:48:21;22.90;77.50
20498;DHT22;10407;53.238;10.448;2023-08-30T09:50:47;22.70;75.40
20498;DHT22;10407;53.238;10.448;2023-08-30T09:53:15;22.60;77.10
20498;DHT22;10407;53.238;10.448;2023-08-30T09:55:45;22.40;76.70
20498;DHT22;10407;53.238;10.448;2023-08-30T09:58:14;22.60;75.50
20498;DHT22;10407;53.238;10.448;2023-08-30T10:00:42;22.60;75.60
20498;DHT22;10407;53.238;10.448;2023-08-30T10:03:11;22.60;74.50
20498;DHT22;10407;53.238;10.448;2023-08-30T10:05:39;22.40;76.20
20498;DHT22;10407;53.238;10.448;2023-08-30T10:08:09;22.50;75.60
20498;DHT22;10407;53.238;10.448;2023-08-30T10:10:38;22.60;76.40
20498;DHT22;10407;53.238;10.448;2023-08-30T10:13:07;22.60;75.70
20498;DHT22;10407;53.238;10.448;2023-08-30T10:15:36;22.40;76.80
20498;DHT22;10407;53.238;10.448;2023-08-30T10:18:06;22.80;77.10
20498;DHT22;10407;53.238;10.448;2023-08-30T10:20:35;23.00;76.10
20498;DHT22;10407;53.238;10.448;2023-08-30T10:23:05;22.90;76.00
20498;DHT22;10407;53.238;10.448;2023-08-30T10:25:40;22.80;74.80
20498;DHT22;10407;53.238;10.448;2023-08-30T10:28:05;22.40;74.60
20498;DHT22;10407;53.238;10.448;2023-08-30T10:30:33;22.60;75.20
20498;DHT22;10407;53.238;10.448;2023-08-30T10:33:00;22.40;74.40
20498;DHT22;10407;53.238;10.448;2023-08-30T10:35:29;22.80;76.20
20498;DHT22;10407;53.238;10.448;2023-08-30T10:37:59;23.20;76.10
20498;DHT22;10407;53.238;10.448;2023-08-30T10:40:26;22.90;74.60
20498;DHT22;10407;53.238;10.448;2023-08-30T10:43:02;22.30;75.40
20498;DHT22;10407;53.238;10.448;2023-08-30T10:45:31;22.40;76.70
20498;DHT22;10407;53.238;10.448;2023-08-30T10:47:59;22.40;76.30
20498;DHT22;10407;53.238;10.448;2023-08-30T10:53:59;22.80;76.00
20498;DHT22;10407;53.238;10.448;2023-08-30T10:56:30;22.50;76.60
20498;DHT22;10407;53.238;10.448;2023-08-30T10:58:59;22.70;77.10
20498;DHT22;10407;53.238;10.448;2023-08-30T11:01:29;22.60;76.10
20498;DHT22;10407;53.238;10.448;2023-08-30T11:03:57;22.40;76.10
20498;DHT22;10407;53.238;10.448;2023-08-30T11:06:26;22.30;75.80
20498;DHT22;10407;53.238;10.448;2023-08-30T11:08:55;22.00;77.10
20498;DHT22;10407;53.238;10.448;2023-08-30T11:11:24;22.00;78.70
20498;DHT22;10407;53.238;10.448;2023-08-30T11:13:52;22.00;78.40
20498;DHT22;10407;53.238;10.448;2023-08-30T11:16:21;22.00;78.00
20498;DHT22;10407;53.238;10.448;2023-08-30T11:18:49;21.80;77.60
20498;DHT22;10407;53.238;10.448;2023-08-30T11:21:17;21.70;79.00
20498;DHT22;10407;53.238;10.448;2023-08-30T11:23:45;22.00;77.80
20498;DHT22;10407;53.238;10.448;2023-08-30T11:26:12;22.40;76.10
20498;DHT22;10407;53.238;10.448;2023-08-30T11:28:46;22.30;76.20
20498;DHT22;10407;53.238;10.448;2023-08-30T11:33:57;22.80;72.70
20498;DHT22;10407;53.238;10.448;2023-08-30T11:36:27;22.60;72.70
20498;DHT22;10407;53.238;10.448;2023-08-30T11:38:55;22.70;75.20
20498;DHT22;10407;53.238;10.448;2023-08-30T11:41:24;22.60;74.50
20498;DHT22;10407;53.238;10.448;2023-08-30T11:43:52;22.60;76.10
20498;DHT22;10407;53.238;10.448;2023-08-30T11:46:21;22.10;75.70
20498;DHT22;10407;53.238;10.448;2023-08-30T11:48:50;22.30;74.60
20498;DHT22;10407;53.238;10.448;2023-08-30T11:51:19;22.20;73.90
20498;DHT22;10407;53.238;10.448;2023-08-30T11:53:47;22.10;74.90
20498;DHT22;10407;53.238;10.448;2023-08-30T11:56:16;21.90;74.10
20498;DHT22;10407;53.238;10.448;2023-08-30T11:58:45;21.70;75.50
20498;DHT22;10407;53.238;10.448;2023-08-30T12:01:13;21.30;75.70
20498;DHT22;10407;53.238;10.448;2023-08-30T12:03:41;21.30;75.10
20498;DHT22;10407;53.238;10.448;2023-08-30T12:06:12;21.20;75.80
20498;DHT22;10407;53.238;10.448;2023-08-30T12:08:39;21.10;77.00
20498;DHT22;10407;53.238;10.448;2023-08-30T12:11:18;21.00;78.10
20498;DHT22;10407;53.238;10.448;2023-08-30T12:13:46;21.10;78.40
20498;DHT22;10407;53.238;10.448;2023-08-30T12:16:18;21.00;80.10
20498;DHT22;10407;53.238;10.448;2023-08-30T12:18:47;21.20;79.70
20498;DHT22;10407;53.238;10.448;2023-08-30T12:21:14;21.20;79.70
20498;DHT22;10407;53.238;10.448;2023-08-30T12:23:42;20.90;80.00
20498;DHT22;10407;53.238;10.448;2023-08-30T12:26:10;21.10;79.60
20498;DHT22;10407;53.238;10.448;2023-08-30T12:32:00;21.00;79.20
20498;DHT22;10407;53.238;10.448;2023-08-30T12:34:28;21.00;79.00
20498;DHT22;10407;53.238;10.448;2023-08-30T12:36:55;21.10;79.60
20498;DHT22;10407;53.238;10.448;2023-08-30T12:39:23;21.10;79.90
20498;DHT22;10407;53.238;10.448;2023-08-30T12:41:50;21.10;79.30
20498;DHT22;10407;53.238;10.448;2023-08-30T12:44:18;21.00;79.40
20498;DHT22;10407;53.238;10.448;2023-08-30T12:46:46;21.10;79.90
20498;DHT22;10407;53.238;10.448;2023-08-30T12:49:13;21.20;79.00
20498;DHT22;10407;53.238;10.448;2023-08-30T12:51:41;21.40;78.00
20498;DHT22;10407;53.238;10.448;2023-08-30T12:54:08;21.50;77.80
20498;DHT22;10407;53.238;10.448;2023-08-30T12:56:36;21.60;79.00
20498;DHT22;10407;53.238;10.448;2023-08-30T12:59:03;21.50;77.80
20498;DHT22;10407;53.238;10.448;2023-08-30T13:01:31;21.50;77.50
20498;DHT22;10407;53.238;10.448;2023-08-30T13:03:58;21.30;77.60
20498;DHT22;10407;53.238;10.448;2023-08-30T13:06:26;21.10;78.00
20498;DHT22;10407;53.238;10.448;2023-08-30T13:08:53;21.00;77.80
20498;DHT22;10407;53.238;10.448;2023-08-30T13:11:21;20.90;77.30
20498;DHT22;10407;53.238;10.448;2023-08-30T13:13:49;21.00;77.60
20498;DHT22;10407;53.238;10.448;2023-08-30T13:16:16;20.80;78.10
20498;DHT22;10407;53.238;10.448;2023-08-30T13:18:44;20.80;77.90
20498;DHT22;10407;53.238;10.448;2023-08-30T13:21:11;20.80;75.90
20498;DHT22;10407;53.238;10.448;2023-08-30T13:23:38;20.80;76.50
20498;DHT22;10407;53.238;10.448;2023-08-30T13:26:06;20.80;77.30
20498;DHT22;10407;53.238;10.448;2023-08-30T13:28:34;20.80;77.00
20498;DHT22;10407;53.238;10.448;2023-08-30T13:31:01;21.20;75.80
20498;DHT22;10407;53.238;10.448;2023-08-30T13:33:29;21.30;75.60
20498;DHT22;10407;53.238;10.448;2023-08-30T13:39:18;21.30;74.50
20498;DHT22;10407;53.238;10.448;2023-08-30T13:41:49;21.20;74.70
20498;DHT22;10407;53.238;10.448;2023-08-30T13:44:16;21.30;75.30
20498;DHT22;10407;53.238;10.448;2023-08-30T13:46:44;21.30;75.00
20498;DHT22;10407;53.238;10.448;2023-08-30T13:49:14;21.30;74.50
20498;DHT22;10407;53.238;10.448;2023-08-30T13:51:42;21.40;75.20
20498;DHT22;10407;53.238;10.448;2023-08-30T13:54:10;21.30;74.40
20498;DHT22;10407;53.238;10.448;2023-08-30T13:56:37;21.70;73.70
20498;DHT22;10407;53.238;10.448;2023-08-30T13:59:05;22.00;73.40
20498;DHT22;10407;53.238;10.448;2023-08-30T14:01:35;22.00;72.20
20498;DHT22;10407;53.238;10.448;2023-08-30T14:04:03;21.90;69.90
20498;DHT22;10407;53.238;10.448;2023-08-30T14:06:31;21.80;69.70
20498;DHT22;10407;53.238;10.448;2023-08-30T14:08:59;21.90;68.40
20498;DHT22;10407;53.238;10.448;2023-08-30T14:11:26;22.00;69.00
20498;DHT22;10407;53.238;10.448;2023-08-30T14:13:54;21.60;67.60
20498;DHT22;10407;53.238;10.448;2023-08-30T14:16:22;21.50;68.90
20498;DHT22;10407;53.238;10.448;2023-08-30T14:18:50;21.80;68.80
20498;DHT22;10407;53.238;10.448;2023-08-30T14:21:18;21.90;66.30
20498;DHT22;10407;53.238;10.448;2023-08-30T14:23:45;21.90;63.70
20498;DHT22;10407;53.238;10.448;2023-08-30T14:26:13;21.80;64.60
20498;DHT22;10407;53.238;10.448;2023-08-30T14:28:40;21.60;62.40
20498;DHT22;10407;53.238;10.448;2023-08-30T14:31:09;21.70;63.20
20498;DHT22;10407;53.238;10.448;2023-08-30T14:33:37;21.40;63.80
20498;DHT22;10407;53.238;10.448;2023-08-30T14:36:11;21.60;65.50
20498;DHT22;10407;53.238;10.448;2023-08-30T14:38:39;21.60;66.20
20498;DHT22;10407;53.238;10.448;2023-08-30T14:41:08;21.80;65.20
20498;DHT22;10407;53.238;10.448;2023-08-30T14:43:35;21.50;63.90
20498;DHT22;10407;53.238;10.448;2023-08-30T14:46:05;21.60;66.20
20498;DHT22;10407;53.238;10.448;2023-08-30T14:48:33;21.60;66.00
20498;DHT22;10407;53.238;10.448;2023-08-30T14:51:01;21.40;61.00
20498;DHT22;10407;53.238;10.448;2023-08-30T14:53:29;21.50;63.20
20498;DHT22;10407;53.238;10.448;2023-08-30T14:59:19;21.20;63.60
20498;DHT22;10407;53.238;10.448;2023-08-30T15:01:47;21.00;65.00
20498;DHT22;10407;53.238;10.448;2023-08-30T15:04:14;21.00;65.50
20498;DHT22;10407;53.238;10.448;2023-08-30T15:06:42;20.90;66.70
20498;DHT22;10407;53.238;10.448;2023-08-30T15:09:09;21.00;66.50
20498;DHT22;10407;53.238;10.448;2023-08-30T15:11:37;21.00;66.70
20498;DHT22;10407;53.238;10.448;2023-08-30T15:14:05;20.90;67.30
20498;DHT22;10407;53.238;10.448;2023-08-30T15:16:33;21.10;67.90
20498;DHT22;10407;53.238;10.448;2023-08-30T15:19:00;21.10;67.90
20498;DHT22;10407;53.238;10.448;2023-08-30T15:21:28;21.20;68.20
20498;DHT22;10407;53.238;10.448;2023-08-30T15:23:56;21.20;68.50
20498;DHT22;10407;53.238;10.448;2023-08-30T15:26:23;21.10;69.10
20498;DHT22;10407;53.238;10.448;2023-08-30T15:28:51;21.10;70.00
20498;DHT22;10407;53.238;10.448;2023-08-30T15:31:19;20.90;69.30
20498;DHT22;10407;53.238;10.448;2023-08-30T15:33:47;20.90;69.30
20498;DHT22;10407;53.238;10.448;2023-08-30T15:36:14;20.80;70.50
20498;DHT22;10407;53.238;10.448;2023-08-30T15:38:42;20.90;70.70
20498;DHT22;10407;53.238;10.448;2023-08-30T15:41:11;20.90;71.10
20498;DHT22;10407;53.238;10.448;2023-08-30T15:43:39;21.00;71.80
20498;DHT22;10407;53.238;10.448;2023-08-30T15:46:09;20.80;71.60
20498;DHT22;10407;53.238;10.448;2023-08-30T15:48:38;20.90;73.20
20498;DHT22;10407;53.238;10.448;2023-08-30T15:51:06;21.00;73.60
20498;DHT22;10407;53.238;10.448;2023-08-30T15:53:36;20.90;74.20
20498;DHT22;10407;53.238;10.448;2023-08-30T15:56:03;20.80;73.10
20498;DHT22;10407;53.238;10.448;2023-08-30T15:58:31;20.70;74.20
20498;DHT22;10407;53.238;10.448;2023-08-30T16:01:03;20.70;74.20
20498;DHT22;10407;53.238;10.448;2023-08-30T16:03:31;20.60;74.90
20498;DHT22;10407;53.238;10.448;2023-08-30T16:06:00;20.60;75.40